sensor_id;sensor_type;location;lat;lon;timestamp;P1;durP1;ratioP1;P2;durP2;ratioP2
31638;SDS011;18248;51.522;7.020;2023-07-29T00:02:19;4.75;;;2.38;;
31638;SDS011;18248;51.522;7.020;2023-07-29T00:05:18;5.63;;;2.47;;
31638;SDS011;18248;51.522;7.020;2023-07-29T00:08:16;6.40;;;3.05;;
31638;SDS011;18248;51.522;7.020;2023-07-29T00:11:15;6.28;;;3.25;;
31638;SDS011;18248;51.522;7.020;2023-07-29T00:14:13;4.32;;;2.28;;
31638;SDS011;18248;51.522;7.020;2023-07-29T00:17:12;4.03;;;2.65;;
31638;SDS011;18248;51.522;7.020;2023-07-29T00:20:11;9.40;;;2.72;;
31638;SDS011;18248;51.522;7.020;2023-07-29T00:23:09;4.82;;;2.20;;
31638;SDS011;18248;51.522;7.020;2023-07-29T00:26:08;5.00;;;2.25;;
31638;SDS011;18248;51.522;7.020;2023-07-29T00:29:06;2.40;;;1.90;;
31638;SDS011;18248;51.522;7.020;2023-07-29T00:32:05;4.47;;;1.90;;
31638;SDS011;18248;51.522;7.020;2023-07-29T00:35:04;4.28;;;1.80;;
31638;SDS011;18248;51.522;7.020;2023-07-29T00:38:03;3.83;;;2.22;;
31638;SDS011;18248;51.522;7.020;2023-07-29T00:41:02;5.68;;;2.20;;
31638;SDS011;18248;51.522;7.020;2023-07-29T00:44:01;2.53;;;1.90;;
31638;SDS011;18248;51.522;7.020;2023-07-29T00:47:00;5.53;;;1.95;;
31638;SDS011;18248;51.522;7.020;2023-07-29T00:50:02;5.05;;;1.65;;
31638;SDS011;18248;51.522;7.020;2023-07-29T00:53:01;3.60;;;2.17;;
31638;SDS011;18248;51.522;7.020;2023-07-29T00:55:59;5.18;;;1.92;;
31638;SDS011;18248;51.522;7.020;2023-07-29T00:58:58;10.60;;;2.65;;
31638;SDS011;18248;51.522;7.020;2023-07-29T01:01:59;2.20;;;1.67;;
31638;SDS011;18248;51.522;7.020;2023-07-29T01:04:58;4.45;;;2.03;;
31638;SDS011;18248;51.522;7.020;2023-07-29T01:08:16;2.85;;;1.50;;
31638;SDS011;18248;51.522;7.020;2023-07-29T01:18:47;3.07;;;1.60;;
31638;SDS011;18248;51.522;7.020;2023-07-29T01:21:48;3.35;;;1.60;;
31638;SDS011;18248;51.522;7.020;2023-07-29T01:24:48;2.42;;;1.48;;
31638;SDS011;18248;51.522;7.020;2023-07-29T01:27:48;1.65;;;1.40;;
31638;SDS011;18248;51.522;7.020;2023-07-29T01:30:49;5.78;;;1.40;;
31638;SDS011;18248;51.522;7.020;2023-07-29T01:33:59;2.90;;;1.70;;
31638;SDS011;18248;51.522;7.020;2023-07-29T01:37:05;2.55;;;1.42;;
31638;SDS011;18248;51.522;7.020;2023-07-29T01:43:08;6.28;;;1.85;;
31638;SDS011;18248;51.522;7.020;2023-07-29T01:46:07;3.15;;;1.85;;
31638;SDS011;18248;51.522;7.020;2023-07-29T01:49:07;4.80;;;1.90;;
31638;SDS011;18248;51.522;7.020;2023-07-29T01:52:05;4.03;;;1.55;;
31638;SDS011;18248;51.522;7.020;2023-07-29T01:55:04;4.30;;;2.25;;
31638;SDS011;18248;51.522;7.020;2023-07-29T01:58:03;6.78;;;2.28;;
31638;SDS011;18248;51.522;7.020;2023-07-29T02:01:01;3.60;;;1.60;;
31638;SDS011;18248;51.522;7.020;2023-07-29T02:04:00;2.72;;;1.98;;
31638;SDS011;18248;51.522;7.020;2023-07-29T02:06:58;2.47;;;1.67;;
31638;SDS011;18248;51.522;7.020;2023-07-29T02:09:57;4.00;;;2.13;;
31638;SDS011;18248;51.522;7.020;2023-07-29T02:12:55;4.68;;;2.25;;
31638;SDS011;18248;51.522;7.020;2023-07-29T02:15:54;5.65;;;2.15;;
31638;SDS011;18248;51.522;7.020;2023-07-29T02:18:52;3.58;;;2.10;;
31638;SDS011;18248;51.522;7.020;2023-07-29T02:21:51;3.83;;;1.80;;
31638;SDS011;18248;51.522;7.020;2023-07-29T02:24:49;5.55;;;2.40;;
31638;SDS011;18248;51.522;7.020;2023-07-29T02:27:48;2.00;;;1.80;;
31638;SDS011;18248;51.522;7.020;2023-07-29T02:30:46;3.00;;;1.83;;
31638;SDS011;18248;51.522;7.020;2023-07-29T02:33:47;3.22;;;1.38;;
31638;SDS011;18248;51.522;7.020;2023-07-29T02:36:47;2.38;;;1.77;;
31638;SDS011;18248;51.522;7.020;2023-07-29T02:39:45;2.58;;;1.73;;
31638;SDS011;18248;51.522;7.020;2023-07-29T02:42:44;3.78;;;1.92;;
31638;SDS011;18248;51.522;7.020;2023-07-29T02:45:42;3.72;;;1.48;;
31638;SDS011;18248;51.522;7.020;2023-07-29T02:48:41;3.50;;;1.52;;
31638;SDS011;18248;51.522;7.020;2023-07-29T02:51:40;3.47;;;1.58;;
31638;SDS011;18248;51.522;7.020;2023-07-29T02:54:39;5.15;;;1.50;;
31638;SDS011;18248;51.522;7.020;2023-07-29T02:57:37;3.03;;;1.60;;
31638;SDS011;18248;51.522;7.020;2023-07-29T03:00:36;2.50;;;1.65;;
31638;SDS011;18248;51.522;7.020;2023-07-29T03:03:35;4.30;;;1.92;;
31638;SDS011;18248;51.522;7.020;2023-07-29T03:06:33;2.72;;;1.80;;
31638;SDS011;18248;51.522;7.020;2023-07-29T03:09:32;4.60;;;1.50;;
31638;SDS011;18248;51.522;7.020;2023-07-29T03:12:31;3.95;;;1.95;;
31638;SDS011;18248;51.522;7.020;2023-07-29T03:15:29;6.30;;;2.08;;
31638;SDS011;18248;51.522;7.020;2023-07-29T03:18:28;5.32;;;1.98;;
31638;SDS011;18248;51.522;7.020;2023-07-29T03:21:26;2.65;;;1.92;;
31638;SDS011;18248;51.522;7.020;2023-07-29T03:24:25;4.75;;;2.33;;
31638;SDS011;18248;51.522;7.020;2023-07-29T03:27:23;4.88;;;2.42;;
31638;SDS011;18248;51.522;7.020;2023-07-29T03:30:22;2.80;;;2.00;;
31638;SDS011;18248;51.522;7.020;2023-07-29T03:33:20;3.08;;;2.17;;
31638;SDS011;18248;51.522;7.020;2023-07-29T03:36:20;2.85;;;2.20;;
31638;SDS011;18248;51.522;7.020;2023-07-29T03:39:19;6.32;;;2.78;;
31638;SDS011;18248;51.522;7.020;2023-07-29T03:42:18;6.25;;;3.05;;
31638;SDS011;18248;51.522;7.020;2023-07-29T03:45:16;5.20;;;2.85;;
31638;SDS011;18248;51.522;7.020;2023-07-29T03:48:15;7.70;;;3.13;;
31638;SDS011;18248;51.522;7.020;2023-07-29T03:51:13;5.20;;;3.30;;
31638;SDS011;18248;51.522;7.020;2023-07-29T03:54:12;3.72;;;3.38;;
31638;SDS011;18248;51.522;7.020;2023-07-29T03:57:10;10.70;;;3.05;;
31638;SDS011;18248;51.522;7.020;2023-07-29T04:00:09;8.40;;;3.72;;
31638;SDS011;18248;51.522;7.020;2023-07-29T04:03:08;5.10;;;3.30;;
31638;SDS011;18248;51.522;7.020;2023-07-29T04:06:07;5.70;;;2.50;;
31638;SDS011;18248;51.522;7.020;2023-07-29T04:09:05;3.67;;;2.85;;
31638;SDS011;18248;51.522;7.020;2023-07-29T04:12:04;5.18;;;3.28;;
31638;SDS011;18248;51.522;7.020;2023-07-29T04:15:03;5.82;;;2.80;;
31638;SDS011;18248;51.522;7.020;2023-07-29T04:18:01;4.43;;;3.28;;
31638;SDS011;18248;51.522;7.020;2023-07-29T04:21:00;3.97;;;3.13;;
31638;SDS011;18248;51.522;7.020;2023-07-29T04:23:59;8.93;;;3.50;;
31638;SDS011;18248;51.522;7.020;2023-07-29T04:26:57;10.82;;;3.60;;
31638;SDS011;18248;51.522;7.020;2023-07-29T04:29:57;8.85;;;3.35;;
31638;SDS011;18248;51.522;7.020;2023-07-29T04:32:56;4.78;;;3.08;;
31638;SDS011;18248;51.522;7.020;2023-07-29T04:35:54;7.38;;;3.72;;
31638;SDS011;18248;51.522;7.020;2023-07-29T04:38:53;5.13;;;2.90;;
31638;SDS011;18248;51.522;7.020;2023-07-29T04:41:51;4.43;;;3.10;;
31638;SDS011;18248;51.522;7.020;2023-07-29T04:44:50;4.13;;;3.03;;
31638;SDS011;18248;51.522;7.020;2023-07-29T04:47:48;5.45;;;3.65;;
31638;SDS011;18248;51.522;7.020;2023-07-29T04:50:47;5.30;;;3.22;;
31638;SDS011;18248;51.522;7.020;2023-07-29T04:53:45;5.20;;;3.83;;
31638;SDS011;18248;51.522;7.020;2023-07-29T04:56:44;4.93;;;3.95;;
31638;SDS011;18248;51.522;7.020;2023-07-29T04:59:42;6.13;;;3.42;;
31638;SDS011;18248;51.522;7.020;2023-07-29T05:02:41;6.35;;;4.40;;
31638;SDS011;18248;51.522;7.020;2023-07-29T05:05:39;4.82;;;3.58;;
31638;SDS011;18248;51.522;7.020;2023-07-29T05:08:38;5.53;;;4.45;;
31638;SDS011;18248;51.522;7.020;2023-07-29T05:11:37;5.68;;;4.25;;
31638;SDS011;18248;51.522;7.020;2023-07-29T05:14:35;8.93;;;4.60;;
31638;SDS011;18248;51.522;7.020;2023-07-29T05:17:34;6.00;;;4.00;;
31638;SDS011;18248;51.522;7.020;2023-07-29T05:20:32;5.88;;;4.00;;
31638;SDS011;18248;51.522;7.020;2023-07-29T05:23:31;6.60;;;4.60;;
31638;SDS011;18248;51.522;7.020;2023-07-29T05:26:29;5.70;;;3.55;;
31638;SDS011;18248;51.522;7.020;2023-07-29T05:29:28;6.40;;;3.88;;
31638;SDS011;18248;51.522;7.020;2023-07-29T05:32:26;4.75;;;3.40;;
31638;SDS011;18248;51.522;7.020;2023-07-29T05:35:25;7.85;;;3.20;;
31638;SDS011;18248;51.522;7.020;2023-07-29T05:38:24;6.40;;;3.28;;
31638;SDS011;18248;51.522;7.020;2023-07-29T05:41:23;8.25;;;3.20;;
31638;SDS011;18248;51.522;7.020;2023-07-29T05:44:24;4.88;;;2.90;;
31638;SDS011;18248;51.522;7.020;2023-07-29T05:47:22;9.88;;;3.30;;
31638;SDS011;18248;51.522;7.020;2023-07-29T05:50:21;4.30;;;3.05;;
31638;SDS011;18248;51.522;7.020;2023-07-29T05:53:19;5.07;;;2.90;;
31638;SDS011;18248;51.522;7.020;2023-07-29T05:56:18;5.72;;;3.42;;
31638;SDS011;18248;51.522;7.020;2023-07-29T05:59:16;9.95;;;3.38;;
31638;SDS011;18248;51.522;7.020;2023-07-29T06:02:15;5.70;;;3.10;;
31638;SDS011;18248;51.522;7.020;2023-07-29T06:05:13;3.25;;;2.53;;
31638;SDS011;18248;51.522;7.020;2023-07-29T06:08:12;3.33;;;2.92;;
31638;SDS011;18248;51.522;7.020;2023-07-29T06:11:10;4.55;;;3.10;;
31638;SDS011;18248;51.522;7.020;2023-07-29T06:14:09;3.95;;;3.00;;
31638;SDS011;18248;51.522;7.020;2023-07-29T06:17:07;6.13;;;3.10;;
31638;SDS011;18248;51.522;7.020;2023-07-29T06:20:09;5.82;;;3.15;;
31638;SDS011;18248;51.522;7.020;2023-07-29T06:23:08;6.95;;;2.80;;
31638;SDS011;18248;51.522;7.020;2023-07-29T06:26:06;4.07;;;2.22;;
31638;SDS011;18248;51.522;7.020;2023-07-29T06:29:05;6.82;;;2.15;;
31638;SDS011;18248;51.522;7.020;2023-07-29T06:32:04;3.55;;;2.20;;
31638;SDS011;18248;51.522;7.020;2023-07-29T06:35:03;6.05;;;2.53;;
31638;SDS011;18248;51.522;7.020;2023-07-29T06:38:01;5.25;;;2.10;;
31638;SDS011;18248;51.522;7.020;2023-07-29T06:41:00;3.45;;;1.92;;
31638;SDS011;18248;51.522;7.020;2023-07-29T06:43:58;2.45;;;1.88;;
31638;SDS011;18248;51.522;7.020;2023-07-29T06:46:57;3.47;;;2.00;;
31638;SDS011;18248;51.522;7.020;2023-07-29T06:49:56;3.97;;;1.83;;
31638;SDS011;18248;51.522;7.020;2023-07-29T06:52:55;6.65;;;2.20;;
31638;SDS011;18248;51.522;7.020;2023-07-29T06:55:53;3.92;;;2.10;;
31638;SDS011;18248;51.522;7.020;2023-07-29T06:58:52;2.95;;;1.67;;
31638;SDS011;18248;51.522;7.020;2023-07-29T07:01:50;3.83;;;1.90;;
31638;SDS011;18248;51.522;7.020;2023-07-29T07:04:49;4.57;;;2.00;;
31638;SDS011;18248;51.522;7.020;2023-07-29T07:07:47;7.20;;;1.67;;
31638;SDS011;18248;51.522;7.020;2023-07-29T07:10:46;4.63;;;1.63;;
31638;SDS011;18248;51.522;7.020;2023-07-29T07:13:45;2.70;;;1.55;;
31638;SDS011;18248;51.522;7.020;2023-07-29T07:16:44;3.90;;;1.40;;
31638;SDS011;18248;51.522;7.020;2023-07-29T07:19:42;6.63;;;1.60;;
31638;SDS011;18248;51.522;7.020;2023-07-29T07:22:41;5.03;;;2.03;;
31638;SDS011;18248;51.522;7.020;2023-07-29T07:25:41;6.05;;;1.60;;
31638;SDS011;18248;51.522;7.020;2023-07-29T07:28:40;5.00;;;1.40;;
31638;SDS011;18248;51.522;7.020;2023-07-29T07:31:39;3.35;;;1.45;;
31638;SDS011;18248;51.522;7.020;2023-07-29T07:34:37;4.88;;;1.50;;
31638;SDS011;18248;51.522;7.020;2023-07-29T07:37:36;4.15;;;1.80;;
31638;SDS011;18248;51.522;7.020;2023-07-29T07:40:34;5.40;;;2.15;;
31638;SDS011;18248;51.522;7.020;2023-07-29T07:43:33;4.85;;;1.48;;
31638;SDS011;18248;51.522;7.020;2023-07-29T07:46:32;1.73;;;1.20;;
31638;SDS011;18248;51.522;7.020;2023-07-29T07:49:30;3.50;;;1.42;;
31638;SDS011;18248;51.522;7.020;2023-07-29T07:52:29;3.03;;;1.33;;
31638;SDS011;18248;51.522;7.020;2023-07-29T07:55:29;1.85;;;0.80;;
31638;SDS011;18248;51.522;7.020;2023-07-29T07:58:27;1.65;;;0.90;;
31638;SDS011;18248;51.522;7.020;2023-07-29T08:01:26;2.47;;;1.10;;
31638;SDS011;18248;51.522;7.020;2023-07-29T08:04:24;0.88;;;0.80;;
31638;SDS011;18248;51.522;7.020;2023-07-29T08:07:23;1.05;;;0.80;;
31638;SDS011;18248;51.522;7.020;2023-07-29T08:10:21;1.85;;;0.93;;
31638;SDS011;18248;51.522;7.020;2023-07-29T08:13:21;1.77;;;0.80;;
31638;SDS011;18248;51.522;7.020;2023-07-29T08:16:20;1.25;;;0.70;;
31638;SDS011;18248;51.522;7.020;2023-07-29T08:19:19;1.85;;;0.90;;
31638;SDS011;18248;51.522;7.020;2023-07-29T08:22:18;1.38;;;0.80;;
31638;SDS011;18248;51.522;7.020;2023-07-29T08:25:18;4.70;;;0.70;;
31638;SDS011;18248;51.522;7.020;2023-07-29T08:28:16;1.50;;;0.80;;
31638;SDS011;18248;51.522;7.020;2023-07-29T08:31:15;4.28;;;0.80;;
31638;SDS011;18248;51.522;7.020;2023-07-29T08:34:13;3.28;;;0.85;;
31638;SDS011;18248;51.522;7.020;2023-07-29T08:37:12;2.28;;;0.80;;
31638;SDS011;18248;51.522;7.020;2023-07-29T08:40:11;6.25;;;0.93;;
31638;SDS011;18248;51.522;7.020;2023-07-29T08:43:12;2.65;;;0.80;;
31638;SDS011;18248;51.522;7.020;2023-07-29T08:46:14;1.42;;;0.80;;
31638;SDS011;18248;51.522;7.020;2023-07-29T08:49:15;3.50;;;0.82;;
31638;SDS011;18248;51.522;7.020;2023-07-29T08:52:17;1.63;;;0.67;;
31638;SDS011;18248;51.522;7.020;2023-07-29T08:55:16;0.85;;;0.60;;
31638;SDS011;18248;51.522;7.020;2023-07-29T08:58:15;0.50;;;0.50;;
31638;SDS011;18248;51.522;7.020;2023-07-29T09:01:14;0.80;;;0.40;;
31638;SDS011;18248;51.522;7.020;2023-07-29T09:04:14;1.45;;;0.50;;
31638;SDS011;18248;51.522;7.020;2023-07-29T09:07:13;2.95;;;0.80;;
31638;SDS011;18248;51.522;7.020;2023-07-29T09:10:12;0.98;;;0.63;;
31638;SDS011;18248;51.522;7.020;2023-07-29T09:13:12;1.35;;;0.80;;
31638;SDS011;18248;51.522;7.020;2023-07-29T09:16:10;3.53;;;0.65;;
31638;SDS011;18248;51.522;7.020;2023-07-29T09:19:09;1.10;;;0.70;;
31638;SDS011;18248;51.522;7.020;2023-07-29T09:22:17;6.68;;;0.80;;
31638;SDS011;18248;51.522;7.020;2023-07-29T09:25:22;2.75;;;0.70;;
31638;SDS011;18248;51.522;7.020;2023-07-29T09:28:22;5.80;;;2.95;;
31638;SDS011;18248;51.522;7.020;2023-07-29T09:31:22;2.13;;;0.88;;
31638;SDS011;18248;51.522;7.020;2023-07-29T09:34:21;1.25;;;0.73;;
31638;SDS011;18248;51.522;7.020;2023-07-29T09:37:22;1.58;;;0.98;;
31638;SDS011;18248;51.522;7.020;2023-07-29T09:40:21;1.67;;;0.90;;
31638;SDS011;18248;51.522;7.020;2023-07-29T09:43:19;2.42;;;1.10;;
31638;SDS011;18248;51.522;7.020;2023-07-29T09:46:25;1.90;;;1.10;;
31638;SDS011;18248;51.522;7.020;2023-07-29T09:49:34;1.83;;;0.88;;
31638;SDS011;18248;51.522;7.020;2023-07-29T09:52:34;1.02;;;0.60;;
31638;SDS011;18248;51.522;7.020;2023-07-29T09:55:33;4.00;;;0.75;;
31638;SDS011;18248;51.522;7.020;2023-07-29T09:58:32;1.23;;;0.70;;
31638;SDS011;18248;51.522;7.020;2023-07-29T10:01:31;3.78;;;1.00;;
31638;SDS011;18248;51.522;7.020;2023-07-29T10:04:32;1.25;;;0.98;;
31638;SDS011;18248;51.522;7.020;2023-07-29T10:07:31;1.38;;;0.85;;
31638;SDS011;18248;51.522;7.020;2023-07-29T10:10:31;2.40;;;0.90;;
31638;SDS011;18248;51.522;7.020;2023-07-29T10:13:30;2.15;;;0.80;;
31638;SDS011;18248;51.522;7.020;2023-07-29T10:16:29;4.95;;;1.00;;
31638;SDS011;18248;51.522;7.020;2023-07-29T10:19:27;0.82;;;0.65;;
31638;SDS011;18248;51.522;7.020;2023-07-29T10:22:29;4.57;;;1.00;;
31638;SDS011;18248;51.522;7.020;2023-07-29T10:25:41;3.72;;;1.00;;
31638;SDS011;18248;51.522;7.020;2023-07-29T10:28:46;2.08;;;1.02;;
31638;SDS011;18248;51.522;7.020;2023-07-29T10:31:45;1.02;;;0.82;;
31638;SDS011;18248;51.522;7.020;2023-07-29T10:34:44;1.73;;;0.95;;
31638;SDS011;18248;51.522;7.020;2023-07-29T10:37:43;1.88;;;0.90;;
31638;SDS011;18248;51.522;7.020;2023-07-29T10:40:47;4.30;;;1.05;;
31638;SDS011;18248;51.522;7.020;2023-07-29T10:46:55;2.58;;;1.00;;
31638;SDS011;18248;51.522;7.020;2023-07-29T10:49:55;1.92;;;0.90;;
31638;SDS011;18248;51.522;7.020;2023-07-29T10:52:55;2.13;;;0.88;;
31638;SDS011;18248;51.522;7.020;2023-07-29T10:55:54;1.13;;;0.80;;
31638;SDS011;18248;51.522;7.020;2023-07-29T10:58:54;2.72;;;1.00;;
31638;SDS011;18248;51.522;7.020;2023-07-29T11:01:58;2.03;;;1.00;;
31638;SDS011;18248;51.522;7.020;2023-07-29T11:04:57;1.95;;;0.93;;
31638;SDS011;18248;51.522;7.020;2023-07-29T11:07:57;1.60;;;0.88;;
31638;SDS011;18248;51.522;7.020;2023-07-29T11:11:02;1.35;;;1.02;;
31638;SDS011;18248;51.522;7.020;2023-07-29T11:14:05;3.00;;;1.15;;
31638;SDS011;18248;51.522;7.020;2023-07-29T11:17:05;3.53;;;1.10;;
31638;SDS011;18248;51.522;7.020;2023-07-29T11:20:04;3.33;;;1.48;;
31638;SDS011;18248;51.522;7.020;2023-07-29T11:23:05;3.88;;;1.50;;
31638;SDS011;18248;51.522;7.020;2023-07-29T11:26:04;2.90;;;1.80;;
31638;SDS011;18248;51.522;7.020;2023-07-29T11:29:03;3.80;;;1.30;;
31638;SDS011;18248;51.522;7.020;2023-07-29T11:32:03;6.30;;;1.58;;
31638;SDS011;18248;51.522;7.020;2023-07-29T11:35:02;10.75;;;1.92;;
31638;SDS011;18248;51.522;7.020;2023-07-29T11:38:16;3.90;;;1.58;;
31638;SDS011;18248;51.522;7.020;2023-07-29T11:41:19;7.55;;;1.63;;
31638;SDS011;18248;51.522;7.020;2023-07-29T11:44:19;4.13;;;1.10;;
31638;SDS011;18248;51.522;7.020;2023-07-29T11:47:17;2.42;;;1.08;;
31638;SDS011;18248;51.522;7.020;2023-07-29T11:50:16;4.00;;;1.20;;
31638;SDS011;18248;51.522;7.020;2023-07-29T11:53:14;1.80;;;1.02;;
31638;SDS011;18248;51.522;7.020;2023-07-29T11:56:13;3.58;;;1.33;;
31638;SDS011;18248;51.522;7.020;2023-07-29T11:59:12;3.25;;;1.25;;
31638;SDS011;18248;51.522;7.020;2023-07-29T12:02:11;1.20;;;1.10;;
31638;SDS011;18248;51.522;7.020;2023-07-29T12:05:14;3.05;;;1.70;;
31638;SDS011;18248;51.522;7.020;2023-07-29T12:08:13;1.90;;;1.35;;
31638;SDS011;18248;51.522;7.020;2023-07-29T12:11:15;4.10;;;1.40;;
31638;SDS011;18248;51.522;7.020;2023-07-29T12:14:16;4.38;;;1.83;;
31638;SDS011;18248;51.522;7.020;2023-07-29T12:17:15;2.65;;;1.40;;
31638;SDS011;18248;51.522;7.020;2023-07-29T12:20:14;3.20;;;1.60;;
31638;SDS011;18248;51.522;7.020;2023-07-29T12:23:12;2.83;;;1.48;;
31638;SDS011;18248;51.522;7.020;2023-07-29T12:26:11;2.55;;;1.42;;
31638;SDS011;18248;51.522;7.020;2023-07-29T12:29:16;3.40;;;1.73;;
31638;SDS011;18248;51.522;7.020;2023-07-29T12:32:17;3.65;;;1.50;;
31638;SDS011;18248;51.522;7.020;2023-07-29T12:35:16;2.38;;;1.60;;
31638;SDS011;18248;51.522;7.020;2023-07-29T12:38:20;2.70;;;2.00;;
31638;SDS011;18248;51.522;7.020;2023-07-29T12:41:19;2.83;;;1.88;;
31638;SDS011;18248;51.522;7.020;2023-07-29T12:44:18;3.50;;;2.15;;
31638;SDS011;18248;51.522;7.020;2023-07-29T12:47:17;4.20;;;1.80;;
31638;SDS011;18248;51.522;7.020;2023-07-29T12:50:15;5.00;;;2.08;;
31638;SDS011;18248;51.522;7.020;2023-07-29T12:53:14;3.22;;;1.48;;
31638;SDS011;18248;51.522;7.020;2023-07-29T12:56:12;3.22;;;1.48;;
31638;SDS011;18248;51.522;7.020;2023-07-29T12:59:11;2.80;;;1.67;;
31638;SDS011;18248;51.522;7.020;2023-07-29T13:02:10;2.75;;;1.40;;
31638;SDS011;18248;51.522;7.020;2023-07-29T13:05:12;5.78;;;1.48;;
31638;SDS011;18248;51.522;7.020;2023-07-29T13:08:10;1.77;;;1.10;;
31638;SDS011;18248;51.522;7.020;2023-07-29T13:11:10;4.10;;;1.02;;
31638;SDS011;18248;51.522;7.020;2023-07-29T13:14:08;2.65;;;1.20;;
31638;SDS011;18248;51.522;7.020;2023-07-29T13:17:07;2.55;;;1.27;;
31638;SDS011;18248;51.522;7.020;2023-07-29T13:20:06;2.88;;;1.38;;
31638;SDS011;18248;51.522;7.020;2023-07-29T13:23:05;4.35;;;1.33;;
31638;SDS011;18248;51.522;7.020;2023-07-29T13:26:03;5.18;;;1.52;;
31638;SDS011;18248;51.522;7.020;2023-07-29T13:29:02;5.00;;;1.45;;
31638;SDS011;18248;51.522;7.020;2023-07-29T13:32:02;1.90;;;1.40;;
31638;SDS011;18248;51.522;7.020;2023-07-29T13:35:00;1.48;;;1.20;;
31638;SDS011;18248;51.522;7.020;2023-07-29T13:38:00;3.67;;;1.30;;
31638;SDS011;18248;51.522;7.020;2023-07-29T13:40:58;5.28;;;1.63;;
31638;SDS011;18248;51.522;7.020;2023-07-29T13:43:57;2.28;;;1.13;;
31638;SDS011;18248;51.522;7.020;2023-07-29T13:46:55;9.65;;;1.60;;
31638;SDS011;18248;51.522;7.020;2023-07-29T13:49:54;6.15;;;2.03;;
31638;SDS011;18248;51.522;7.020;2023-07-29T13:52:52;13.02;;;3.78;;
31638;SDS011;18248;51.522;7.020;2023-07-29T13:55:51;17.08;;;3.88;;
31638;SDS011;18248;51.522;7.020;2023-07-29T13:58:49;6.85;;;3.05;;
31638;SDS011;18248;51.522;7.020;2023-07-29T14:01:48;6.80;;;2.95;;
31638;SDS011;18248;51.522;7.020;2023-07-29T14:04:46;3.30;;;2.20;;
31638;SDS011;18248;51.522;7.020;2023-07-29T14:07:45;6.53;;;2.42;;
31638;SDS011;18248;51.522;7.020;2023-07-29T14:10:44;7.63;;;2.05;;
31638;SDS011;18248;51.522;7.020;2023-07-29T14:13:42;13.70;;;1.90;;
31638;SDS011;18248;51.522;7.020;2023-07-29T14:16:41;6.57;;;1.70;;
31638;SDS011;18248;51.522;7.020;2023-07-29T14:19:39;6.20;;;1.30;;
31638;SDS011;18248;51.522;7.020;2023-07-29T14:22:38;6.57;;;1.60;;
31638;SDS011;18248;51.522;7.020;2023-07-29T14:25:36;10.32;;;1.80;;
31638;SDS011;18248;51.522;7.020;2023-07-29T14:28:35;12.95;;;1.75;;
31638;SDS011;18248;51.522;7.020;2023-07-29T14:31:34;3.80;;;1.20;;
31638;SDS011;18248;51.522;7.020;2023-07-29T14:34:34;9.30;;;1.88;;
31638;SDS011;18248;51.522;7.020;2023-07-29T14:37:33;6.65;;;1.52;;
31638;SDS011;18248;51.522;7.020;2023-07-29T14:40:32;5.25;;;1.50;;
31638;SDS011;18248;51.522;7.020;2023-07-29T14:43:30;3.65;;;1.45;;
31638;SDS011;18248;51.522;7.020;2023-07-29T14:46:29;4.93;;;1.40;;
31638;SDS011;18248;51.522;7.020;2023-07-29T14:49:27;2.00;;;0.90;;
31638;SDS011;18248;51.522;7.020;2023-07-29T14:52:26;2.35;;;1.00;;
31638;SDS011;18248;51.522;7.020;2023-07-29T14:55:25;1.67;;;0.90;;
31638;SDS011;18248;51.522;7.020;2023-07-29T14:58:23;8.82;;;3.47;;
31638;SDS011;18248;51.522;7.020;2023-07-29T15:01:23;2.95;;;1.73;;
31638;SDS011;18248;51.522;7.020;2023-07-29T15:04:22;5.72;;;2.67;;
31638;SDS011;18248;51.522;7.020;2023-07-29T15:07:20;2.72;;;1.30;;
31638;SDS011;18248;51.522;7.020;2023-07-29T15:10:20;8.75;;;3.25;;
31638;SDS011;18248;51.522;7.020;2023-07-29T15:13:19;5.63;;;2.58;;
31638;SDS011;18248;51.522;7.020;2023-07-29T15:16:17;3.63;;;1.80;;
31638;SDS011;18248;51.522;7.020;2023-07-29T15:19:16;2.65;;;1.20;;
31638;SDS011;18248;51.522;7.020;2023-07-29T15:22:15;5.38;;;1.20;;
31638;SDS011;18248;51.522;7.020;2023-07-29T15:25:14;2.60;;;1.20;;
31638;SDS011;18248;51.522;7.020;2023-07-29T15:28:12;3.90;;;1.40;;
31638;SDS011;18248;51.522;7.020;2023-07-29T15:31:12;2.10;;;1.38;;
31638;SDS011;18248;51.522;7.020;2023-07-29T15:34:11;5.95;;;2.05;;
31638;SDS011;18248;51.522;7.020;2023-07-29T15:37:09;3.33;;;1.77;;
31638;SDS011;18248;51.522;7.020;2023-07-29T15:40:08;4.65;;;1.90;;
31638;SDS011;18248;51.522;7.020;2023-07-29T15:43:07;3.13;;;1.42;;
31638;SDS011;18248;51.522;7.020;2023-07-29T15:46:05;4.93;;;1.50;;
31638;SDS011;18248;51.522;7.020;2023-07-29T15:49:04;4.30;;;1.73;;
31638;SDS011;18248;51.522;7.020;2023-07-29T15:52:03;6.47;;;1.80;;
31638;SDS011;18248;51.522;7.020;2023-07-29T15:55:02;3.78;;;1.50;;
31638;SDS011;18248;51.522;7.020;2023-07-29T15:58:01;3.53;;;1.52;;
31638;SDS011;18248;51.522;7.020;2023-07-29T16:00:59;5.43;;;2.00;;
31638;SDS011;18248;51.522;7.020;2023-07-29T16:03:59;4.65;;;2.10;;
31638;SDS011;18248;51.522;7.020;2023-07-29T16:06:58;8.10;;;2.10;;
31638;SDS011;18248;51.522;7.020;2023-07-29T16:09:56;7.38;;;2.80;;
31638;SDS011;18248;51.522;7.020;2023-07-29T16:12:55;5.50;;;2.35;;
31638;SDS011;18248;51.522;7.020;2023-07-29T16:15:54;4.03;;;2.30;;
31638;SDS011;18248;51.522;7.020;2023-07-29T16:18:56;5.40;;;2.38;;
31638;SDS011;18248;51.522;7.020;2023-07-29T16:21:54;4.75;;;2.38;;
31638;SDS011;18248;51.522;7.020;2023-07-29T16:24:57;4.18;;;2.10;;
31638;SDS011;18248;51.522;7.020;2023-07-29T16:27:56;3.42;;;2.50;;
31638;SDS011;18248;51.522;7.020;2023-07-29T16:30:55;14.75;;;11.93;;
31638;SDS011;18248;51.522;7.020;2023-07-29T16:33:54;3.65;;;2.35;;
31638;SDS011;18248;51.522;7.020;2023-07-29T16:36:53;8.40;;;2.22;;
31638;SDS011;18248;51.522;7.020;2023-07-29T16:39:51;3.67;;;2.10;;
31638;SDS011;18248;51.522;7.020;2023-07-29T16:42:53;2.90;;;2.13;;
31638;SDS011;18248;51.522;7.020;2023-07-29T16:45:53;2.42;;;1.77;;
31638;SDS011;18248;51.522;7.020;2023-07-29T16:48:52;2.28;;;1.58;;
31638;SDS011;18248;51.522;7.020;2023-07-29T16:51:50;2.20;;;1.70;;
31638;SDS011;18248;51.522;7.020;2023-07-29T16:54:49;3.40;;;1.80;;
31638;SDS011;18248;51.522;7.020;2023-07-29T16:57:48;2.67;;;2.03;;
31638;SDS011;18248;51.522;7.020;2023-07-29T17:00:47;2.88;;;1.80;;
31638;SDS011;18248;51.522;7.020;2023-07-29T17:03:45;1.70;;;1.40;;
31638;SDS011;18248;51.522;7.020;2023-07-29T17:06:44;4.00;;;1.65;;
31638;SDS011;18248;51.522;7.020;2023-07-29T17:09:43;5.97;;;2.00;;
31638;SDS011;18248;51.522;7.020;2023-07-29T17:12:44;4.55;;;1.83;;
31638;SDS011;18248;51.522;7.020;2023-07-29T17:15:43;2.65;;;1.77;;
31638;SDS011;18248;51.522;7.020;2023-07-29T17:18:41;3.88;;;1.65;;
31638;SDS011;18248;51.522;7.020;2023-07-29T17:21:40;4.22;;;1.95;;
31638;SDS011;18248;51.522;7.020;2023-07-29T17:24:38;3.10;;;1.80;;
31638;SDS011;18248;51.522;7.020;2023-07-29T17:27:37;6.68;;;2.30;;
31638;SDS011;18248;51.522;7.020;2023-07-29T17:30:35;3.03;;;2.50;;
31638;SDS011;18248;51.522;7.020;2023-07-29T17:33:34;6.00;;;2.72;;
31638;SDS011;18248;51.522;7.020;2023-07-29T17:36:34;3.72;;;2.03;;
31638;SDS011;18248;51.522;7.020;2023-07-29T17:39:33;2.65;;;2.20;;
31638;SDS011;18248;51.522;7.020;2023-07-29T17:42:31;5.35;;;2.38;;
31638;SDS011;18248;51.522;7.020;2023-07-29T17:45:30;3.47;;;2.47;;
31638;SDS011;18248;51.522;7.020;2023-07-29T17:48:28;2.33;;;2.05;;
31638;SDS011;18248;51.522;7.020;2023-07-29T17:51:28;6.00;;;2.17;;
31638;SDS011;18248;51.522;7.020;2023-07-29T17:54:27;4.07;;;2.22;;
31638;SDS011;18248;51.522;7.020;2023-07-29T17:57:25;2.60;;;2.05;;
31638;SDS011;18248;51.522;7.020;2023-07-29T18:00:25;2.72;;;1.80;;
31638;SDS011;18248;51.522;7.020;2023-07-29T18:03:23;4.05;;;2.40;;
31638;SDS011;18248;51.522;7.020;2023-07-29T18:06:22;2.75;;;2.00;;
31638;SDS011;18248;51.522;7.020;2023-07-29T18:09:21;4.93;;;2.60;;
31638;SDS011;18248;51.522;7.020;2023-07-29T18:12:20;3.17;;;2.38;;
31638;SDS011;18248;51.522;7.020;2023-07-29T18:15:18;5.30;;;2.88;;